Delray Beach, FL

1:15 AM EST on February 27, 2015 (GMT -0500)
Delray Beach | Change Station
CLOSE
Current Station
Personal Weather Station
Location: Delray Beach, FL
Elevation: 30 ft
Nearby Weather Stations

Elev 30 ft 26.47 °N, 80.09 °W | Updated 20 seconds ago

Overcast
Overcast
68.9 °F
Feels Like 68.9 °F
N
3.2
Wind Variable Wind from NW
Gusts 5.3 mph

Today
High -- | Low -- °F
--% Chance of Precip.
Yesterday
High -- | Low -- °F
Precip. -- in
6:46 AM 6:20 PM
Waxing Gibbous, 66% visible
Pressure 30.01 in
Visibility 10.0 miles
Clouds Overcast 1700 ft
Dew Point 64 °F
Humidity 84%
Rainfall 0.00 in
Snow Depth Not available.
UV 0 out of 12
Pollen 8.70 out of 12
Air Quality Not available.
Flu Activity Not available.
METAR KPMP 270553Z 35008KT 10SM OVC017 22/17 A3001 RMK AO2 SLP162 60000 T02170172 10261 20217 51005

More Conditions Fewer Conditions

Pressure 30.01 in
Visibility 10.0 miles
Clouds Overcast 1700 ft
Dew Point 64 °F
Humidity 84%
Rainfall 0.00 in
Snow Depth Not available.
UV 0 out of 12
Pollen 8.70 out of 12
Air Quality Not available.
Flu Activity Not available.
METAR KPMP 270553Z 35008KT 10SM OVC017 22/17 A3001 RMK AO2 SLP162 60000 T02170172 10261 20217 51005

More Conditions Fewer Conditions

Nowcast | as of 11:20 PM EST on February 26, 2015

Through late this evening...light fast moving showers will continue to move northeast from the Gulf of Mexico across the northern areas of South Florida and into the Atlantic waters. Rainfall amounts from the showers will be less than tenth of an inch. These showers are present before and after the front. The strongest showers are expected over the Atlantic waters.

×

10-Day Weather Forecast

Almanac

Astronomy

Feb. 27, 2015 Rise Set
Actual Time
Civil Twilight
Nautical Twilight
Astronomical Twilight
Moon
Length of Visible Light
Length of Day
Tomorrow will be .
, % of the Moon is Illuminated

Today's Extremes

State Highs State Lows

Community

WunderPhotos

Upload Photos

1,800,643 photos uploaded!

WunderBlogs® & News

Nearby

Air Quality

  Air Quality AQ Index Pollutant
Not available.

Snow Depth

Station Depth Elevation

Earthquake Activity

City Distance Mag. Time & Date
Minimum magnitude displayed is 2.5.

Coastal Water Temperatures

Place Temperature

Nearby Weather Stations